createdAt,value
2022-09-30T00:01:44.794Z,97.10
2022-09-30T00:04:18.080Z,97.10
2022-09-30T00:06:45.591Z,97.10
2022-09-30T00:09:13.150Z,97.10
2022-09-30T00:11:41.384Z,97.00
2022-09-30T00:14:13.727Z,96.70
2022-09-30T00:16:40.524Z,96.70
2022-09-30T00:19:07.336Z,96.60
2022-09-30T00:21:34.630Z,96.60
2022-09-30T00:24:02.018Z,96.70
2022-09-30T00:26:29.312Z,96.70
2022-09-30T00:28:58.444Z,96.80
2022-09-30T00:31:29.183Z,96.80
2022-09-30T00:34:08.198Z,96.90
2022-09-30T00:36:50.026Z,96.90
2022-09-30T00:39:20.448Z,97.30
2022-09-30T00:41:51.319Z,97.20
2022-09-30T00:44:45.942Z,97.40
2022-09-30T00:47:45.659Z,97.60
2022-09-30T00:50:48.867Z,97.50
2022-09-30T00:53:29.742Z,97.50
2022-09-30T00:56:07.871Z,97.60
2022-09-30T00:58:43.006Z,97.70
2022-09-30T01:01:10.248Z,97.70
2022-09-30T01:03:42.306Z,97.80
2022-09-30T01:06:09.324Z,97.90
2022-09-30T01:08:38.985Z,98.00
2022-09-30T01:11:08.389Z,98.20
2022-09-30T01:13:37.096Z,98.30
2022-09-30T01:16:12.845Z,98.30
2022-09-30T01:19:10.551Z,98.40
2022-09-30T01:21:59.796Z,98.50
2022-09-30T01:25:04.389Z,98.70
2022-09-30T01:27:43.208Z,99.00
2022-09-30T01:30:13.300Z,99.20
2022-09-30T01:32:58.888Z,99.30
2022-09-30T01:35:54.622Z,99.40
2022-09-30T01:38:29.621Z,99.60
2022-09-30T01:40:59.448Z,99.80
2022-09-30T01:43:31.995Z,99.90
2022-09-30T01:46:17.462Z,99.90
2022-09-30T01:49:18.952Z,99.90
2022-09-30T01:52:03.130Z,99.90
2022-09-30T01:55:01.676Z,99.90
2022-09-30T01:57:52.330Z,99.90
2022-09-30T02:00:21.004Z,99.90
2022-09-30T02:02:55.351Z,99.90
2022-09-30T02:05:29.387Z,99.90
2022-09-30T02:08:04.415Z,99.90
2022-09-30T02:10:42.038Z,99.90
2022-09-30T02:13:24.431Z,99.90
2022-09-30T02:16:02.755Z,99.90
2022-09-30T02:18:39.215Z,99.90
2022-09-30T02:21:09.020Z,99.90
2022-09-30T02:23:40.902Z,99.90
2022-09-30T02:26:18.163Z,99.90
2022-09-30T02:28:53.409Z,99.90
2022-09-30T02:31:24.012Z,99.90
2022-09-30T02:33:56.431Z,99.90
2022-09-30T02:36:38.245Z,99.90
2022-09-30T02:39:21.652Z,99.90
2022-09-30T02:41:53.947Z,99.90
2022-09-30T02:44:21.218Z,99.90
2022-09-30T02:47:13.010Z,99.90
2022-09-30T02:50:07.081Z,99.90
2022-09-30T02:53:24.086Z,99.90
2022-09-30T02:55:50.856Z,99.90
2022-09-30T02:58:21.544Z,99.90
2022-09-30T03:00:50.386Z,99.90
2022-09-30T03:03:39.998Z,99.90
2022-09-30T03:06:07.418Z,99.90
2022-09-30T03:08:34.186Z,99.90
2022-09-30T03:11:01.097Z,99.90
2022-09-30T03:13:49.971Z,99.90
2022-09-30T03:16:31.701Z,99.90
2022-09-30T03:19:23.125Z,99.90
2022-09-30T03:22:12.818Z,99.90
2022-09-30T03:25:09.681Z,99.90
2022-09-30T03:27:43.080Z,99.90
2022-09-30T03:30:24.302Z,99.90
2022-09-30T03:33:23.058Z,99.90
2022-09-30T03:36:37.320Z,99.90
2022-09-30T03:39:10.411Z,99.90
2022-09-30T03:41:58.414Z,99.90
2022-09-30T03:44:42.988Z,99.90
2022-09-30T03:47:13.631Z,99.90
2022-09-30T03:49:54.534Z,99.90
2022-09-30T03:52:23.719Z,99.90
2022-09-30T03:54:55.430Z,99.90
2022-09-30T03:57:22.365Z,99.90
2022-09-30T03:59:49.137Z,99.90
2022-09-30T04:02:16.059Z,99.90
2022-09-30T04:04:42.866Z,99.90
2022-09-30T04:07:10.459Z,99.90
2022-09-30T04:09:41.045Z,99.90
2022-09-30T04:12:08.630Z,99.90
2022-09-30T04:14:35.943Z,99.90
2022-09-30T04:17:06.218Z,99.90
2022-09-30T04:19:38.235Z,99.90
2022-09-30T04:22:05.054Z,99.90
2022-09-30T04:24:31.897Z,99.90
2022-09-30T04:26:59.044Z,99.90
2022-09-30T04:29:26.259Z,99.90
2022-09-30T04:31:53.315Z,99.90
2022-09-30T04:34:20.138Z,99.90
2022-09-30T04:36:46.976Z,99.90
2022-09-30T04:39:13.819Z,99.90
2022-09-30T04:41:40.934Z,99.90
2022-09-30T04:44:07.857Z,99.90
2022-09-30T04:46:36.845Z,99.90
2022-09-30T04:49:08.821Z,99.90
2022-09-30T04:51:36.650Z,99.90
2022-09-30T04:54:04.028Z,99.90
2022-09-30T04:56:31.081Z,99.90
2022-09-30T04:58:57.901Z,99.90
2022-09-30T05:01:24.833Z,99.90
2022-09-30T05:03:51.712Z,99.90
2022-09-30T05:06:18.761Z,99.90
2022-09-30T05:08:46.622Z,99.90
2022-09-30T05:11:21.753Z,99.90
2022-09-30T05:13:49.153Z,99.90
2022-09-30T05:16:17.055Z,99.90
2022-09-30T05:18:46.283Z,99.90
2022-09-30T05:21:19.581Z,99.90
2022-09-30T05:23:46.600Z,99.90
2022-09-30T05:26:13.715Z,99.90
2022-09-30T05:28:41.906Z,99.90
2022-09-30T05:31:09.719Z,99.90
2022-09-30T05:33:36.565Z,99.90
2022-09-30T05:36:06.481Z,99.90
2022-09-30T05:38:34.120Z,99.90
2022-09-30T05:41:07.833Z,99.90
2022-09-30T05:43:35.247Z,99.90
2022-09-30T05:46:02.005Z,99.90
2022-09-30T05:48:28.784Z,99.90
2022-09-30T05:50:57.658Z,99.90
2022-09-30T05:53:24.652Z,99.90
2022-09-30T05:55:51.583Z,99.90
2022-09-30T05:58:19.080Z,99.90
2022-09-30T06:00:47.383Z,99.90
2022-09-30T06:03:15.326Z,99.90
2022-09-30T06:05:42.285Z,99.90
2022-09-30T06:08:10.118Z,99.90
2022-09-30T06:10:39.864Z,99.90
2022-09-30T06:13:07.390Z,99.90
2022-09-30T06:15:35.042Z,99.90
2022-09-30T06:18:01.904Z,99.90
2022-09-30T06:20:28.755Z,99.90
2022-09-30T06:22:55.518Z,99.90
2022-09-30T06:25:22.474Z,99.90
2022-09-30T06:27:50.295Z,99.90
2022-09-30T06:30:17.282Z,99.90
2022-09-30T06:32:44.240Z,99.90
2022-09-30T06:35:11.258Z,99.90
2022-09-30T06:37:38.761Z,99.90
2022-09-30T06:40:07.674Z,99.90
2022-09-30T06:42:34.825Z,99.90
2022-09-30T06:45:01.594Z,99.90
2022-09-30T06:47:28.440Z,99.90
2022-09-30T06:49:58.862Z,99.00
2022-09-30T06:52:27.269Z,98.70
2022-09-30T06:54:56.875Z,98.30
2022-09-30T06:57:26.799Z,98.00
2022-09-30T06:59:54.646Z,98.00
2022-09-30T07:02:22.094Z,97.70
2022-09-30T07:04:49.145Z,97.70
2022-09-30T07:07:15.941Z,97.60
2022-09-30T07:09:43.437Z,97.40
2022-09-30T07:12:10.400Z,97.00
2022-09-30T07:14:37.272Z,96.50
2022-09-30T07:17:06.095Z,96.30
2022-09-30T07:19:35.185Z,96.10
2022-09-30T07:22:21.142Z,95.50
2022-09-30T07:24:48.002Z,95.30
2022-09-30T07:27:14.755Z,95.50
2022-09-30T07:30:07.169Z,95.40
2022-09-30T07:32:28.537Z,95.30
2022-09-30T07:34:55.487Z,95.20
2022-09-30T07:37:24.996Z,95.20
2022-09-30T07:39:52.103Z,95.00
2022-09-30T07:42:22.634Z,94.90
2022-09-30T07:44:52.382Z,94.80
2022-09-30T07:47:20.471Z,94.60
2022-09-30T07:49:47.806Z,94.70
2022-09-30T07:52:15.029Z,94.10
2022-09-30T07:54:48.103Z,93.90
2022-09-30T07:57:17.203Z,93.90
2022-09-30T07:59:44.303Z,93.90
2022-09-30T08:02:17.577Z,93.30
2022-09-30T08:04:45.194Z,93.00
2022-09-30T08:07:13.600Z,92.70
2022-09-30T08:09:40.596Z,92.50
2022-09-30T08:12:07.530Z,92.40
2022-09-30T08:14:34.313Z,92.00
2022-09-30T08:17:01.678Z,91.90
2022-09-30T08:19:30.063Z,91.60
2022-09-30T08:21:57.839Z,91.40
2022-09-30T08:24:26.361Z,91.20
2022-09-30T08:26:53.903Z,91.10
2022-09-30T08:29:42.729Z,90.80
2022-09-30T08:32:07.993Z,90.70
2022-09-30T08:34:35.696Z,90.30
2022-09-30T08:37:07.766Z,90.30
2022-09-30T08:39:36.223Z,90.40
2022-09-30T08:42:36.242Z,89.70
2022-09-30T08:45:35.299Z,90.10
2022-09-30T08:48:05.093Z,90.10
2022-09-30T08:51:00.929Z,90.10
2022-09-30T08:53:36.922Z,90.00
2022-09-30T08:56:05.589Z,90.10
2022-09-30T08:58:38.928Z,89.30
2022-09-30T09:01:31.235Z,88.30
2022-09-30T09:04:00.421Z,89.10
2022-09-30T09:06:52.820Z,89.10
2022-09-30T09:09:51.095Z,89.00
2022-09-30T09:12:36.490Z,88.80
2022-09-30T09:15:21.836Z,88.30
2022-09-30T09:18:28.634Z,87.90
2022-09-30T09:20:56.467Z,88.20
2022-09-30T09:23:24.478Z,88.00
2022-09-30T09:25:55.618Z,87.20
2022-09-30T09:28:37.867Z,87.30
2022-09-30T09:31:05.554Z,87.20
2022-09-30T09:33:39.415Z,87.20
2022-09-30T09:36:31.310Z,86.70
2022-09-30T09:39:27.406Z,86.30
2022-09-30T09:42:33.245Z,86.50
2022-09-30T09:45:00.027Z,86.60
2022-09-30T09:47:26.801Z,85.60
2022-09-30T09:50:04.235Z,85.60
2022-09-30T09:52:40.330Z,86.10
2022-09-30T09:55:10.483Z,84.30
2022-09-30T09:57:37.670Z,84.50
2022-09-30T10:00:30.117Z,85.00
2022-09-30T10:03:08.371Z,84.70
2022-09-30T10:05:39.985Z,85.20
2022-09-30T10:08:21.969Z,84.50
2022-09-30T10:10:56.715Z,84.30
2022-09-30T10:13:44.825Z,84.20
2022-09-30T10:16:28.995Z,84.10
2022-09-30T10:18:56.202Z,83.90
2022-09-30T10:21:25.798Z,83.50
2022-09-30T10:23:52.642Z,83.40
2022-09-30T10:26:25.282Z,82.90
2022-09-30T10:28:53.526Z,83.40
2022-09-30T10:31:24.815Z,83.10
2022-09-30T10:34:04.383Z,82.10
2022-09-30T10:36:36.600Z,83.50
2022-09-30T10:39:08.064Z,83.20
2022-09-30T10:41:37.768Z,82.80
2022-09-30T10:44:12.889Z,82.60
2022-09-30T10:46:41.833Z,82.20
2022-09-30T10:52:04.221Z,80.60
2022-09-30T10:54:36.806Z,79.40
2022-09-30T10:57:04.547Z,80.40
2022-09-30T10:59:38.493Z,81.00
2022-09-30T11:02:41.698Z,80.40
2022-09-30T11:05:08.806Z,81.20
2022-09-30T11:08:10.793Z,80.80
2022-09-30T11:11:05.875Z,79.70
2022-09-30T11:13:41.477Z,78.30
2022-09-30T11:16:42.378Z,79.60
2022-09-30T11:19:11.862Z,79.00
2022-09-30T11:22:19.086Z,78.20
2022-09-30T11:24:49.076Z,79.30
2022-09-30T11:27:21.961Z,76.60
2022-09-30T11:30:09.239Z,77.80
2022-09-30T11:32:55.885Z,78.80
2022-09-30T11:35:44.330Z,77.90
2022-09-30T11:38:45.294Z,79.10
2022-09-30T11:41:19.452Z,78.70
2022-09-30T11:44:11.086Z,74.30
2022-09-30T11:46:46.742Z,75.70
2022-09-30T11:49:35.418Z,75.30
2022-09-30T11:52:32.157Z,75.30
2022-09-30T11:55:15.139Z,76.30
2022-09-30T11:57:48.371Z,76.00
2022-09-30T12:00:18.023Z,78.70
2022-09-30T12:02:49.714Z,77.70
2022-09-30T12:05:39.940Z,78.70
2022-09-30T12:08:35.374Z,74.70
2022-09-30T12:11:10.665Z,71.60
2022-09-30T12:13:43.588Z,73.20
2022-09-30T12:16:19.985Z,71.30
2022-09-30T12:19:02.803Z,73.10
2022-09-30T12:21:35.548Z,70.50
2022-09-30T12:24:11.529Z,70.20
2022-09-30T12:26:40.390Z,71.00
2022-09-30T12:29:41.542Z,71.60
2022-09-30T12:32:22.386Z,74.40
2022-09-30T12:35:01.481Z,73.30
2022-09-30T12:37:58.882Z,70.50
2022-09-30T12:40:56.149Z,71.30
2022-09-30T12:43:58.484Z,71.60
2022-09-30T12:46:35.940Z,70.30
2022-09-30T12:49:09.769Z,68.50
2022-09-30T12:51:42.938Z,68.60
2022-09-30T12:54:41.665Z,69.70
2022-09-30T12:57:09.771Z,71.70
2022-09-30T12:59:45.356Z,71.50
2022-09-30T13:02:30.298Z,71.70
2022-09-30T13:05:32.357Z,69.00
2022-09-30T13:08:05.061Z,69.90
2022-09-30T13:10:33.209Z,72.10
2022-09-30T13:13:25.933Z,70.60
2022-09-30T13:15:56.228Z,71.30
2022-09-30T13:18:27.073Z,71.60
2022-09-30T13:21:04.838Z,70.70
2022-09-30T13:23:43.348Z,71.80
2022-09-30T13:26:34.551Z,73.30
2022-09-30T13:29:01.426Z,71.40
2022-09-30T13:31:30.444Z,71.60
2022-09-30T13:34:01.479Z,70.50
2022-09-30T13:36:33.262Z,69.70
2022-09-30T13:39:29.318Z,69.30
2022-09-30T13:42:13.369Z,69.00
2022-09-30T13:45:05.698Z,68.80
2022-09-30T13:47:47.911Z,69.30
2022-09-30T13:50:31.611Z,69.20
2022-09-30T13:53:02.532Z,67.70
2022-09-30T13:55:41.507Z,67.70
2022-09-30T13:58:35.183Z,67.40
2022-09-30T14:01:17.079Z,66.50
2022-09-30T14:04:02.360Z,66.10
2022-09-30T14:07:11.340Z,66.80
2022-09-30T14:10:11.039Z,66.50
2022-09-30T14:13:02.794Z,67.40
2022-09-30T14:15:57.287Z,66.90
2022-09-30T14:18:50.296Z,66.90
2022-09-30T14:21:31.343Z,66.60
2022-09-30T14:24:24.023Z,68.50
2022-09-30T14:27:01.264Z,67.80
2022-09-30T14:29:57.873Z,67.10
2022-09-30T14:32:39.564Z,67.40
2022-09-30T14:35:08.513Z,68.00
2022-09-30T14:37:53.583Z,67.70
2022-09-30T14:40:36.219Z,68.00
2022-09-30T14:43:05.506Z,69.80
2022-09-30T14:45:43.107Z,70.00
2022-09-30T14:48:17.267Z,69.40
2022-09-30T14:51:05.070Z,67.70
2022-09-30T14:53:52.438Z,68.10
2022-09-30T14:56:29.575Z,67.90
2022-09-30T14:58:59.672Z,67.90
2022-09-30T15:01:48.028Z,68.60
2022-09-30T15:04:26.131Z,68.80
2022-09-30T15:06:53.894Z,68.00
2022-09-30T15:09:36.252Z,68.70
2022-09-30T15:12:13.587Z,68.50
2022-09-30T15:14:54.043Z,68.60
2022-09-30T15:17:22.198Z,68.00
2022-09-30T15:19:50.555Z,67.30
2022-09-30T15:22:18.901Z,67.30
2022-09-30T15:24:47.747Z,67.20
2022-09-30T15:27:25.138Z,67.40
2022-09-30T15:30:14.860Z,68.00
2022-09-30T15:32:42.447Z,68.10
2022-09-30T15:35:17.058Z,68.10
2022-09-30T15:37:45.632Z,68.20
2022-09-30T15:40:40.476Z,68.70
2022-09-30T15:43:14.398Z,68.20
2022-09-30T15:45:44.001Z,68.60
2022-09-30T15:48:25.660Z,68.70
2022-09-30T15:50:58.365Z,69.40
2022-09-30T15:53:47.197Z,69.30
2022-09-30T15:56:25.759Z,69.60
2022-09-30T15:58:58.049Z,69.70
2022-09-30T16:01:46.870Z,69.40
2022-09-30T16:04:16.614Z,69.80
2022-09-30T16:06:53.516Z,70.30
2022-09-30T16:09:35.572Z,70.80
2022-09-30T16:12:03.551Z,70.90
2022-09-30T16:14:43.068Z,72.00
2022-09-30T16:17:33.660Z,72.90
2022-09-30T16:20:11.052Z,73.10
2022-09-30T16:22:40.847Z,73.60
2022-09-30T16:25:10.969Z,74.80
2022-09-30T16:27:38.433Z,75.30
2022-09-30T16:30:06.782Z,76.00
2022-09-30T16:32:38.764Z,76.80
2022-09-30T16:35:06.888Z,77.80
2022-09-30T16:37:33.660Z,78.50
2022-09-30T16:40:14.983Z,79.30
2022-09-30T16:42:41.739Z,80.10
2022-09-30T16:45:10.868Z,80.70
2022-09-30T16:47:37.655Z,81.20
2022-09-30T16:50:16.773Z,82.00
2022-09-30T16:52:43.537Z,82.60
2022-09-30T16:55:10.446Z,82.90
2022-09-30T16:57:38.132Z,83.10
2022-09-30T17:00:05.778Z,83.60
2022-09-30T17:02:32.685Z,83.90
2022-09-30T17:04:59.513Z,84.10
2022-09-30T17:07:26.272Z,84.40
2022-09-30T17:09:53.038Z,84.70
2022-09-30T17:12:19.790Z,84.90
2022-09-30T17:14:46.715Z,85.10
2022-09-30T17:17:14.084Z,85.20
2022-09-30T17:19:41.045Z,85.40
2022-09-30T17:22:07.847Z,85.70
2022-09-30T17:24:34.609Z,85.70
2022-09-30T17:27:01.386Z,85.80
2022-09-30T17:29:32.418Z,86.10
2022-09-30T17:31:59.945Z,86.30
2022-09-30T17:34:28.079Z,86.70
2022-09-30T17:36:56.242Z,86.70
2022-09-30T17:39:25.432Z,86.90
2022-09-30T17:42:10.863Z,87.40
2022-09-30T17:44:39.130Z,87.40
2022-09-30T17:47:06.444Z,87.60
2022-09-30T17:49:35.252Z,87.90
2022-09-30T17:52:03.514Z,88.00
2022-09-30T17:54:31.469Z,88.30
2022-09-30T17:56:58.485Z,88.50
2022-09-30T17:59:27.035Z,88.80
2022-09-30T18:01:56.596Z,88.80
2022-09-30T18:04:27.335Z,88.80
2022-09-30T18:06:54.930Z,89.00
2022-09-30T18:09:22.832Z,89.00
2022-09-30T18:11:49.964Z,89.20
2022-09-30T18:14:16.834Z,89.80
2022-09-30T18:16:43.964Z,90.10
2022-09-30T18:19:10.845Z,90.20
2022-09-30T18:21:38.420Z,90.30
2022-09-30T18:24:06.383Z,90.40
2022-09-30T18:26:35.980Z,90.40
2022-09-30T18:29:03.445Z,90.40
2022-09-30T18:31:36.816Z,90.50
2022-09-30T18:34:05.667Z,90.60
2022-09-30T18:36:32.906Z,90.60
2022-09-30T18:39:02.119Z,90.60
2022-09-30T18:41:31.821Z,90.70
2022-09-30T18:44:02.725Z,90.80
2022-09-30T18:46:30.856Z,90.90
2022-09-30T18:48:58.150Z,91.00
2022-09-30T18:51:25.285Z,91.00
2022-09-30T18:53:56.003Z,91.10
2022-09-30T18:56:24.595Z,91.10
2022-09-30T18:58:54.517Z,91.10
2022-09-30T19:01:21.745Z,91.10
2022-09-30T19:03:49.017Z,91.20
2022-09-30T19:06:17.896Z,91.30
2022-09-30T19:08:45.102Z,91.30
2022-09-30T19:11:14.924Z,91.30
2022-09-30T19:13:44.324Z,91.40
2022-09-30T19:16:12.282Z,91.50
2022-09-30T19:18:41.216Z,91.60
2022-09-30T19:21:11.959Z,91.60
2022-09-30T19:23:40.203Z,91.60
2022-09-30T19:26:10.267Z,91.60
2022-09-30T19:28:39.952Z,91.70
2022-09-30T19:31:12.571Z,91.70
2022-09-30T19:33:55.101Z,91.80
2022-09-30T19:36:24.764Z,91.90
2022-09-30T19:38:59.303Z,91.90
2022-09-30T19:41:32.852Z,92.00
2022-09-30T19:44:03.714Z,91.90
2022-09-30T19:46:30.551Z,91.90
2022-09-30T19:48:58.470Z,92.00
2022-09-30T19:51:26.399Z,92.00
2022-09-30T19:54:04.786Z,92.00
2022-09-30T19:56:34.318Z,92.00
2022-09-30T19:59:01.266Z,92.00
2022-09-30T20:01:29.287Z,92.10
2022-09-30T20:04:00.307Z,92.10
2022-09-30T20:06:28.227Z,92.10
2022-09-30T20:08:59.918Z,92.10
2022-09-30T20:11:36.040Z,92.20
2022-09-30T20:14:24.888Z,92.20
2022-09-30T20:16:52.633Z,92.20
2022-09-30T20:19:19.917Z,92.30
2022-09-30T20:21:47.525Z,92.30
2022-09-30T20:24:15.845Z,92.30
2022-09-30T20:26:47.562Z,92.20
2022-09-30T20:29:14.717Z,92.10
2022-09-30T20:31:43.277Z,92.00
2022-09-30T20:34:12.829Z,92.00
2022-09-30T20:36:41.528Z,91.90
2022-09-30T20:39:09.198Z,91.90
2022-09-30T20:41:38.083Z,91.90
2022-09-30T20:44:13.154Z,91.80
2022-09-30T20:46:41.688Z,91.90
2022-09-30T20:49:09.019Z,91.90
2022-09-30T20:51:36.247Z,91.80
2022-09-30T20:54:03.269Z,91.80
2022-09-30T20:56:49.562Z,91.80
2022-09-30T20:59:17.405Z,91.80
2022-09-30T21:01:44.393Z,91.80
2022-09-30T21:04:11.346Z,91.80
2022-09-30T21:06:38.191Z,91.80
2022-09-30T21:09:05.597Z,91.80
2022-09-30T21:11:33.599Z,91.80
2022-09-30T21:14:01.272Z,91.80
2022-09-30T21:16:29.740Z,91.80
2022-09-30T21:18:56.645Z,91.80
2022-09-30T21:21:24.837Z,91.70
2022-09-30T21:23:55.609Z,91.70
2022-09-30T21:26:22.502Z,91.70
2022-09-30T21:28:50.893Z,91.70
2022-09-30T21:31:21.529Z,91.60
2022-09-30T21:33:58.380Z,91.60
2022-09-30T21:36:26.680Z,91.60
2022-09-30T21:38:54.845Z,91.50
2022-09-30T21:41:22.569Z,91.50
2022-09-30T21:43:52.931Z,91.50
2022-09-30T21:46:19.785Z,91.50
2022-09-30T21:48:46.626Z,91.40
2022-09-30T21:51:13.935Z,91.40
2022-09-30T21:53:41.853Z,91.40
2022-09-30T21:56:11.637Z,91.40
2022-09-30T21:58:38.603Z,91.40
2022-09-30T22:01:06.692Z,91.40
2022-09-30T22:03:38.714Z,91.40
2022-09-30T22:06:08.223Z,91.40
2022-09-30T22:08:40.094Z,91.40
2022-09-30T22:11:12.837Z,91.40
2022-09-30T22:13:42.962Z,91.50
2022-09-30T22:16:10.652Z,91.50
2022-09-30T22:18:37.681Z,91.50
2022-09-30T22:21:07.864Z,91.50
2022-09-30T22:23:34.840Z,91.50
2022-09-30T22:26:10.414Z,91.50
2022-09-30T22:28:38.230Z,91.40
2022-09-30T22:31:16.450Z,91.50
2022-09-30T22:34:02.394Z,91.50
2022-09-30T22:36:47.693Z,91.40
2022-09-30T22:39:14.842Z,91.40
2022-09-30T22:41:42.669Z,91.50
2022-09-30T22:44:09.476Z,91.50
2022-09-30T22:46:37.906Z,91.50
2022-09-30T22:49:05.736Z,91.50
2022-09-30T22:51:32.930Z,91.50
2022-09-30T22:54:01.253Z,91.50
2022-09-30T22:56:28.141Z,91.50
2022-09-30T22:58:54.939Z,91.60
2022-09-30T23:01:22.196Z,91.60
2022-09-30T23:03:55.949Z,91.60
2022-09-30T23:06:24.611Z,91.50
2022-09-30T23:08:54.420Z,91.50
2022-09-30T23:11:23.229Z,91.50
2022-09-30T23:13:52.587Z,91.60
2022-09-30T23:16:21.364Z,91.60
2022-09-30T23:18:48.367Z,91.60
2022-09-30T23:21:18.759Z,91.60
2022-09-30T23:23:48.344Z,91.50
2022-09-30T23:26:25.340Z,91.50
2022-09-30T23:29:04.030Z,91.40
2022-09-30T23:31:31.197Z,91.40
2022-09-30T23:34:00.743Z,91.30
2022-09-30T23:36:30.888Z,91.30
2022-09-30T23:39:13.354Z,91.20
2022-09-30T23:41:40.502Z,91.10
2022-09-30T23:44:09.683Z,91.10
2022-09-30T23:46:36.585Z,91.10
2022-09-30T23:49:03.534Z,91.00
2022-09-30T23:51:31.273Z,91.00
2022-09-30T23:53:58.201Z,90.90
2022-09-30T23:56:25.336Z,90.90
2022-09-30T23:58:52.081Z,90.90
